sensor_id;sensor_type;location;lat;lon;timestamp;P1;durP1;ratioP1;P2;durP2;ratioP2
12120;SDS011;6124;59.460;17.908;2023-04-06T00:01:19;4.73;;;3.60;;
12120;SDS011;6124;59.460;17.908;2023-04-06T00:03:48;5.10;;;3.60;;
12120;SDS011;6124;59.460;17.908;2023-04-06T00:06:15;5.33;;;3.70;;
12120;SDS011;6124;59.460;17.908;2023-04-06T00:08:42;4.90;;;3.40;;
12120;SDS011;6124;59.460;17.908;2023-04-06T00:11:10;4.43;;;3.30;;
12120;SDS011;6124;59.460;17.908;2023-04-06T00:13:37;5.33;;;3.33;;
12120;SDS011;6124;59.460;17.908;2023-04-06T00:16:05;6.03;;;3.70;;
12120;SDS011;6124;59.460;17.908;2023-04-06T00:18:32;4.97;;;3.67;;
12120;SDS011;6124;59.460;17.908;2023-04-06T00:21:01;4.73;;;3.40;;
12120;SDS011;6124;59.460;17.908;2023-04-06T00:23:28;5.87;;;3.23;;
12120;SDS011;6124;59.460;17.908;2023-04-06T00:25:56;6.07;;;3.73;;
12120;SDS011;6124;59.460;17.908;2023-04-06T00:28:23;5.93;;;3.70;;
12120;SDS011;6124;59.460;17.908;2023-04-06T00:30:51;6.07;;;3.63;;
12120;SDS011;6124;59.460;17.908;2023-04-06T00:33:20;4.30;;;3.47;;
12120;SDS011;6124;59.460;17.908;2023-04-06T00:35:47;4.37;;;3.30;;
12120;SDS011;6124;59.460;17.908;2023-04-06T00:38:16;5.63;;;3.50;;
12120;SDS011;6124;59.460;17.908;2023-04-06T00:40:44;4.60;;;3.10;;
12120;SDS011;6124;59.460;17.908;2023-04-06T00:43:11;5.67;;;3.60;;
12120;SDS011;6124;59.460;17.908;2023-04-06T00:45:39;5.73;;;3.60;;
12120;SDS011;6124;59.460;17.908;2023-04-06T00:48:07;5.37;;;3.90;;
12120;SDS011;6124;59.460;17.908;2023-04-06T00:50:34;7.97;;;4.20;;
12120;SDS011;6124;59.460;17.908;2023-04-06T00:53:02;6.77;;;4.07;;
12120;SDS011;6124;59.460;17.908;2023-04-06T00:55:30;8.87;;;3.53;;
12120;SDS011;6124;59.460;17.908;2023-04-06T00:57:58;5.67;;;3.80;;
12120;SDS011;6124;59.460;17.908;2023-04-06T01:00:28;4.93;;;3.33;;
12120;SDS011;6124;59.460;17.908;2023-04-06T01:02:55;5.40;;;3.97;;
12120;SDS011;6124;59.460;17.908;2023-04-06T01:05:23;5.57;;;3.70;;
12120;SDS011;6124;59.460;17.908;2023-04-06T01:07:50;5.87;;;3.37;;
12120;SDS011;6124;59.460;17.908;2023-04-06T01:10:23;4.70;;;3.33;;
12120;SDS011;6124;59.460;17.908;2023-04-06T01:12:52;5.70;;;3.27;;
12120;SDS011;6124;59.460;17.908;2023-04-06T01:15:20;4.93;;;3.20;;
12120;SDS011;6124;59.460;17.908;2023-04-06T01:17:47;6.23;;;3.90;;
12120;SDS011;6124;59.460;17.908;2023-04-06T01:20:15;6.77;;;4.17;;
12120;SDS011;6124;59.460;17.908;2023-04-06T01:22:44;7.40;;;3.60;;
12120;SDS011;6124;59.460;17.908;2023-04-06T01:25:11;5.53;;;4.00;;
12120;SDS011;6124;59.460;17.908;2023-04-06T01:27:38;5.43;;;3.70;;
12120;SDS011;6124;59.460;17.908;2023-04-06T01:30:06;5.53;;;3.80;;
12120;SDS011;6124;59.460;17.908;2023-04-06T01:32:34;6.30;;;3.50;;
12120;SDS011;6124;59.460;17.908;2023-04-06T01:35:01;5.37;;;4.00;;
12120;SDS011;6124;59.460;17.908;2023-04-06T01:37:28;4.87;;;3.37;;
12120;SDS011;6124;59.460;17.908;2023-04-06T01:39:59;6.60;;;4.07;;
12120;SDS011;6124;59.460;17.908;2023-04-06T01:42:26;5.80;;;3.33;;
12120;SDS011;6124;59.460;17.908;2023-04-06T01:44:55;6.57;;;3.50;;
12120;SDS011;6124;59.460;17.908;2023-04-06T01:47:22;5.00;;;3.50;;
12120;SDS011;6124;59.460;17.908;2023-04-06T01:49:50;5.33;;;3.47;;
12120;SDS011;6124;59.460;17.908;2023-04-06T01:52:17;6.07;;;3.80;;
12120;SDS011;6124;59.460;17.908;2023-04-06T01:54:44;5.17;;;4.00;;
12120;SDS011;6124;59.460;17.908;2023-04-06T01:57:13;6.73;;;3.57;;
12120;SDS011;6124;59.460;17.908;2023-04-06T01:59:41;5.47;;;3.47;;
12120;SDS011;6124;59.460;17.908;2023-04-06T02:02:08;5.60;;;3.80;;
12120;SDS011;6124;59.460;17.908;2023-04-06T02:04:35;5.50;;;3.77;;
12120;SDS011;6124;59.460;17.908;2023-04-06T02:07:03;6.07;;;3.37;;
12120;SDS011;6124;59.460;17.908;2023-04-06T02:09:30;5.83;;;3.80;;
12120;SDS011;6124;59.460;17.908;2023-04-06T02:11:57;7.10;;;3.90;;
12120;SDS011;6124;59.460;17.908;2023-04-06T02:14:27;5.70;;;3.97;;
12120;SDS011;6124;59.460;17.908;2023-04-06T02:16:55;6.03;;;3.80;;
12120;SDS011;6124;59.460;17.908;2023-04-06T02:19:22;5.37;;;3.80;;
12120;SDS011;6124;59.460;17.908;2023-04-06T02:21:49;7.53;;;4.40;;
12120;SDS011;6124;59.460;17.908;2023-04-06T02:24:17;5.40;;;3.70;;
12120;SDS011;6124;59.460;17.908;2023-04-06T02:26:44;6.33;;;4.30;;
12120;SDS011;6124;59.460;17.908;2023-04-06T02:29:11;6.90;;;4.13;;
12120;SDS011;6124;59.460;17.908;2023-04-06T02:31:40;6.57;;;4.03;;
12120;SDS011;6124;59.460;17.908;2023-04-06T02:34:08;7.40;;;3.93;;
12120;SDS011;6124;59.460;17.908;2023-04-06T02:36:38;8.67;;;4.37;;
12120;SDS011;6124;59.460;17.908;2023-04-06T02:39:05;6.83;;;4.10;;
12120;SDS011;6124;59.460;17.908;2023-04-06T02:41:33;6.37;;;3.90;;
12120;SDS011;6124;59.460;17.908;2023-04-06T02:44:00;7.20;;;4.63;;
12120;SDS011;6124;59.460;17.908;2023-04-06T02:46:27;7.37;;;4.60;;
12120;SDS011;6124;59.460;17.908;2023-04-06T02:48:56;8.17;;;4.40;;
12120;SDS011;6124;59.460;17.908;2023-04-06T02:51:25;7.47;;;4.70;;
12120;SDS011;6124;59.460;17.908;2023-04-06T02:53:53;6.37;;;4.10;;
12120;SDS011;6124;59.460;17.908;2023-04-06T02:56:20;8.87;;;4.63;;
12120;SDS011;6124;59.460;17.908;2023-04-06T02:58:48;9.97;;;4.80;;
12120;SDS011;6124;59.460;17.908;2023-04-06T03:01:15;6.53;;;4.33;;
12120;SDS011;6124;59.460;17.908;2023-04-06T03:03:42;5.90;;;3.90;;
12120;SDS011;6124;59.460;17.908;2023-04-06T03:06:11;8.83;;;4.20;;
12120;SDS011;6124;59.460;17.908;2023-04-06T03:08:38;6.33;;;4.10;;
12120;SDS011;6124;59.460;17.908;2023-04-06T03:11:06;7.30;;;4.40;;
12120;SDS011;6124;59.460;17.908;2023-04-06T03:13:33;5.77;;;4.30;;
12120;SDS011;6124;59.460;17.908;2023-04-06T03:16:01;7.93;;;4.27;;
12120;SDS011;6124;59.460;17.908;2023-04-06T03:18:28;8.33;;;4.93;;
12120;SDS011;6124;59.460;17.908;2023-04-06T03:20:55;8.70;;;4.93;;
12120;SDS011;6124;59.460;17.908;2023-04-06T03:23:24;8.07;;;5.03;;
12120;SDS011;6124;59.460;17.908;2023-04-06T03:25:51;8.90;;;5.03;;
12120;SDS011;6124;59.460;17.908;2023-04-06T03:28:19;6.70;;;4.80;;
12120;SDS011;6124;59.460;17.908;2023-04-06T03:30:46;8.43;;;5.63;;
12120;SDS011;6124;59.460;17.908;2023-04-06T03:33:13;7.80;;;4.40;;
12120;SDS011;6124;59.460;17.908;2023-04-06T03:35:41;9.23;;;5.20;;
12120;SDS011;6124;59.460;17.908;2023-04-06T03:38:08;6.63;;;4.43;;
12120;SDS011;6124;59.460;17.908;2023-04-06T03:40:37;7.87;;;4.40;;
12120;SDS011;6124;59.460;17.908;2023-04-06T03:43:04;7.93;;;4.67;;
12120;SDS011;6124;59.460;17.908;2023-04-06T03:45:32;7.13;;;4.27;;
12120;SDS011;6124;59.460;17.908;2023-04-06T03:47:59;7.53;;;4.23;;
12120;SDS011;6124;59.460;17.908;2023-04-06T03:50:27;7.13;;;4.20;;
12120;SDS011;6124;59.460;17.908;2023-04-06T03:52:54;8.57;;;5.10;;
12120;SDS011;6124;59.460;17.908;2023-04-06T03:55:21;8.83;;;4.73;;
12120;SDS011;6124;59.460;17.908;2023-04-06T03:57:50;9.90;;;4.90;;
12120;SDS011;6124;59.460;17.908;2023-04-06T04:00:18;6.57;;;4.50;;
12120;SDS011;6124;59.460;17.908;2023-04-06T04:02:45;6.90;;;4.20;;
12120;SDS011;6124;59.460;17.908;2023-04-06T04:05:12;8.10;;;4.77;;
12120;SDS011;6124;59.460;17.908;2023-04-06T04:07:40;7.87;;;4.63;;
12120;SDS011;6124;59.460;17.908;2023-04-06T04:10:07;8.80;;;5.07;;
12120;SDS011;6124;59.460;17.908;2023-04-06T04:12:35;9.90;;;4.60;;
12120;SDS011;6124;59.460;17.908;2023-04-06T04:15:04;10.43;;;5.10;;
12120;SDS011;6124;59.460;17.908;2023-04-06T04:17:32;8.67;;;4.37;;
12120;SDS011;6124;59.460;17.908;2023-04-06T04:19:59;7.60;;;4.73;;
12120;SDS011;6124;59.460;17.908;2023-04-06T04:22:27;6.57;;;4.63;;
12120;SDS011;6124;59.460;17.908;2023-04-06T04:24:54;7.60;;;4.43;;
12120;SDS011;6124;59.460;17.908;2023-04-06T04:27:21;6.83;;;4.60;;
12120;SDS011;6124;59.460;17.908;2023-04-06T04:29:49;7.23;;;4.40;;
12120;SDS011;6124;59.460;17.908;2023-04-06T04:32:18;7.67;;;4.47;;
12120;SDS011;6124;59.460;17.908;2023-04-06T04:34:45;4.80;;;3.90;;
12120;SDS011;6124;59.460;17.908;2023-04-06T04:37:13;6.23;;;4.50;;
12120;SDS011;6124;59.460;17.908;2023-04-06T04:39:40;6.73;;;4.60;;
12120;SDS011;6124;59.460;17.908;2023-04-06T04:42:07;7.00;;;4.57;;
12120;SDS011;6124;59.460;17.908;2023-04-06T04:44:35;6.90;;;4.30;;
12120;SDS011;6124;59.460;17.908;2023-04-06T04:47:02;7.20;;;4.50;;
12120;SDS011;6124;59.460;17.908;2023-04-06T04:49:31;7.87;;;4.40;;
12120;SDS011;6124;59.460;17.908;2023-04-06T04:51:59;7.53;;;4.33;;
12120;SDS011;6124;59.460;17.908;2023-04-06T04:54:26;7.07;;;4.50;;
12120;SDS011;6124;59.460;17.908;2023-04-06T04:56:54;10.20;;;5.10;;
12120;SDS011;6124;59.460;17.908;2023-04-06T04:59:21;8.13;;;4.63;;
12120;SDS011;6124;59.460;17.908;2023-04-06T05:01:48;7.77;;;4.33;;
12120;SDS011;6124;59.460;17.908;2023-04-06T05:04:16;7.50;;;4.67;;
12120;SDS011;6124;59.460;17.908;2023-04-06T05:06:44;8.03;;;4.33;;
12120;SDS011;6124;59.460;17.908;2023-04-06T05:09:12;6.70;;;4.30;;
12120;SDS011;6124;59.460;17.908;2023-04-06T05:11:39;6.10;;;4.60;;
12120;SDS011;6124;59.460;17.908;2023-04-06T05:14:06;7.43;;;4.87;;
12120;SDS011;6124;59.460;17.908;2023-04-06T05:16:34;6.13;;;4.03;;
12120;SDS011;6124;59.460;17.908;2023-04-06T05:19:01;6.43;;;4.30;;
12120;SDS011;6124;59.460;17.908;2023-04-06T05:21:29;8.07;;;4.30;;
12120;SDS011;6124;59.460;17.908;2023-04-06T05:23:58;6.33;;;4.23;;
12120;SDS011;6124;59.460;17.908;2023-04-06T05:26:27;5.43;;;4.17;;
12120;SDS011;6124;59.460;17.908;2023-04-06T05:28:54;9.47;;;4.87;;
12120;SDS011;6124;59.460;17.908;2023-04-06T05:31:22;6.60;;;4.47;;
12120;SDS011;6124;59.460;17.908;2023-04-06T05:33:49;6.13;;;4.20;;
12120;SDS011;6124;59.460;17.908;2023-04-06T05:36:17;6.10;;;4.37;;
12120;SDS011;6124;59.460;17.908;2023-04-06T05:38:44;6.57;;;4.27;;
12120;SDS011;6124;59.460;17.908;2023-04-06T05:41:13;9.60;;;4.53;;
12120;SDS011;6124;59.460;17.908;2023-04-06T05:43:40;6.47;;;3.80;;
12120;SDS011;6124;59.460;17.908;2023-04-06T05:46:08;6.73;;;3.90;;
12120;SDS011;6124;59.460;17.908;2023-04-06T05:48:35;6.83;;;4.03;;
12120;SDS011;6124;59.460;17.908;2023-04-06T05:51:03;8.43;;;4.13;;
12120;SDS011;6124;59.460;17.908;2023-04-06T05:53:31;5.50;;;4.27;;
12120;SDS011;6124;59.460;17.908;2023-04-06T05:56:00;7.00;;;4.53;;
12120;SDS011;6124;59.460;17.908;2023-04-06T05:58:29;6.10;;;4.30;;
12120;SDS011;6124;59.460;17.908;2023-04-06T06:00:57;10.00;;;4.30;;
12120;SDS011;6124;59.460;17.908;2023-04-06T06:03:24;5.70;;;4.13;;
12120;SDS011;6124;59.460;17.908;2023-04-06T06:05:51;8.27;;;4.47;;
12120;SDS011;6124;59.460;17.908;2023-04-06T06:08:19;7.57;;;4.13;;
12120;SDS011;6124;59.460;17.908;2023-04-06T06:10:46;6.43;;;3.97;;
12120;SDS011;6124;59.460;17.908;2023-04-06T06:13:13;6.00;;;4.07;;
12120;SDS011;6124;59.460;17.908;2023-04-06T06:15:42;5.30;;;4.10;;
12120;SDS011;6124;59.460;17.908;2023-04-06T06:18:10;4.97;;;3.77;;
12120;SDS011;6124;59.460;17.908;2023-04-06T06:20:37;6.03;;;3.97;;
12120;SDS011;6124;59.460;17.908;2023-04-06T06:23:04;6.20;;;4.10;;
12120;SDS011;6124;59.460;17.908;2023-04-06T06:25:32;5.40;;;3.90;;
12120;SDS011;6124;59.460;17.908;2023-04-06T06:27:59;4.87;;;3.73;;
12120;SDS011;6124;59.460;17.908;2023-04-06T06:30:27;5.30;;;3.63;;
12120;SDS011;6124;59.460;17.908;2023-04-06T06:32:56;8.00;;;3.87;;
12120;SDS011;6124;59.460;17.908;2023-04-06T06:35:23;5.90;;;3.80;;
12120;SDS011;6124;59.460;17.908;2023-04-06T06:37:51;7.20;;;4.20;;
12120;SDS011;6124;59.460;17.908;2023-04-06T06:40:18;6.67;;;4.00;;
12120;SDS011;6124;59.460;17.908;2023-04-06T06:42:48;7.53;;;4.10;;
12120;SDS011;6124;59.460;17.908;2023-04-06T06:45:17;5.13;;;3.70;;
12120;SDS011;6124;59.460;17.908;2023-04-06T06:47:45;4.90;;;3.53;;
12120;SDS011;6124;59.460;17.908;2023-04-06T06:50:14;5.07;;;3.50;;
12120;SDS011;6124;59.460;17.908;2023-04-06T06:52:41;7.07;;;3.40;;
12120;SDS011;6124;59.460;17.908;2023-04-06T06:55:09;4.83;;;3.13;;
12120;SDS011;6124;59.460;17.908;2023-04-06T06:57:36;4.23;;;3.30;;
12120;SDS011;6124;59.460;17.908;2023-04-06T07:00:04;4.10;;;3.10;;
12120;SDS011;6124;59.460;17.908;2023-04-06T07:02:33;6.60;;;3.43;;
12120;SDS011;6124;59.460;17.908;2023-04-06T07:05:01;3.33;;;2.77;;
12120;SDS011;6124;59.460;17.908;2023-04-06T07:07:31;6.13;;;3.50;;
12120;SDS011;6124;59.460;17.908;2023-04-06T07:09:58;4.07;;;3.40;;
12120;SDS011;6124;59.460;17.908;2023-04-06T07:12:26;6.27;;;3.70;;
12120;SDS011;6124;59.460;17.908;2023-04-06T07:14:53;4.10;;;2.90;;
12120;SDS011;6124;59.460;17.908;2023-04-06T07:17:20;3.57;;;3.03;;
12120;SDS011;6124;59.460;17.908;2023-04-06T07:19:49;4.80;;;3.33;;
12120;SDS011;6124;59.460;17.908;2023-04-06T07:22:17;4.83;;;3.10;;
12120;SDS011;6124;59.460;17.908;2023-04-06T07:24:45;5.67;;;2.97;;
12120;SDS011;6124;59.460;17.908;2023-04-06T07:27:13;4.53;;;3.27;;
12120;SDS011;6124;59.460;17.908;2023-04-06T07:29:41;4.63;;;3.37;;
12120;SDS011;6124;59.460;17.908;2023-04-06T07:32:08;3.77;;;3.13;;
12120;SDS011;6124;59.460;17.908;2023-04-06T07:34:36;5.00;;;3.43;;
12120;SDS011;6124;59.460;17.908;2023-04-06T07:37:03;5.63;;;3.63;;
12120;SDS011;6124;59.460;17.908;2023-04-06T07:39:31;4.80;;;3.30;;
12120;SDS011;6124;59.460;17.908;2023-04-06T07:41:59;7.27;;;2.97;;
12120;SDS011;6124;59.460;17.908;2023-04-06T07:44:27;4.93;;;3.17;;
12120;SDS011;6124;59.460;17.908;2023-04-06T07:46:54;4.43;;;3.50;;
12120;SDS011;6124;59.460;17.908;2023-04-06T07:49:21;4.07;;;3.03;;
12120;SDS011;6124;59.460;17.908;2023-04-06T07:51:49;4.13;;;2.83;;
12120;SDS011;6124;59.460;17.908;2023-04-06T07:54:16;5.77;;;3.30;;
12120;SDS011;6124;59.460;17.908;2023-04-06T07:56:43;7.20;;;3.20;;
12120;SDS011;6124;59.460;17.908;2023-04-06T07:59:12;4.00;;;2.93;;
12120;SDS011;6124;59.460;17.908;2023-04-06T08:01:39;5.87;;;3.00;;
12120;SDS011;6124;59.460;17.908;2023-04-06T08:04:07;4.07;;;2.97;;
12120;SDS011;6124;59.460;17.908;2023-04-06T08:06:34;5.23;;;3.20;;
12120;SDS011;6124;59.460;17.908;2023-04-06T08:09:02;5.97;;;2.90;;
12120;SDS011;6124;59.460;17.908;2023-04-06T08:11:29;5.83;;;3.10;;
12120;SDS011;6124;59.460;17.908;2023-04-06T08:13:57;7.10;;;3.67;;
12120;SDS011;6124;59.460;17.908;2023-04-06T08:16:26;3.93;;;2.60;;
12120;SDS011;6124;59.460;17.908;2023-04-06T08:18:53;8.13;;;3.30;;
12120;SDS011;6124;59.460;17.908;2023-04-06T08:21:20;7.30;;;2.83;;
12120;SDS011;6124;59.460;17.908;2023-04-06T08:23:47;4.07;;;2.70;;
12120;SDS011;6124;59.460;17.908;2023-04-06T08:26:15;4.53;;;2.60;;
12120;SDS011;6124;59.460;17.908;2023-04-06T08:28:42;9.53;;;2.77;;
12120;SDS011;6124;59.460;17.908;2023-04-06T08:31:10;3.97;;;2.60;;
12120;SDS011;6124;59.460;17.908;2023-04-06T08:33:38;4.07;;;2.67;;
12120;SDS011;6124;59.460;17.908;2023-04-06T08:36:07;6.27;;;2.70;;
12120;SDS011;6124;59.460;17.908;2023-04-06T08:38:35;2.57;;;2.27;;
12120;SDS011;6124;59.460;17.908;2023-04-06T08:41:06;4.27;;;2.50;;
12120;SDS011;6124;59.460;17.908;2023-04-06T08:43:35;3.07;;;1.80;;
12120;SDS011;6124;59.460;17.908;2023-04-06T08:46:06;4.27;;;2.00;;
12120;SDS011;6124;59.460;17.908;2023-04-06T08:48:33;5.23;;;2.07;;
12120;SDS011;6124;59.460;17.908;2023-04-06T08:51:03;6.47;;;2.13;;
12120;SDS011;6124;59.460;17.908;2023-04-06T08:53:30;5.73;;;1.93;;
12120;SDS011;6124;59.460;17.908;2023-04-06T08:55:58;6.93;;;1.90;;
12120;SDS011;6124;59.460;17.908;2023-04-06T08:58:26;7.27;;;2.20;;
12120;SDS011;6124;59.460;17.908;2023-04-06T09:00:55;2.17;;;1.90;;
12120;SDS011;6124;59.460;17.908;2023-04-06T09:03:22;2.40;;;1.60;;
12120;SDS011;6124;59.460;17.908;2023-04-06T09:05:50;3.57;;;2.03;;
12120;SDS011;6124;59.460;17.908;2023-04-06T09:08:19;3.30;;;1.70;;
12120;SDS011;6124;59.460;17.908;2023-04-06T09:10:47;2.87;;;1.80;;
12120;SDS011;6124;59.460;17.908;2023-04-06T09:13:14;2.73;;;1.90;;
12120;SDS011;6124;59.460;17.908;2023-04-06T09:15:42;5.13;;;1.90;;
12120;SDS011;6124;59.460;17.908;2023-04-06T09:18:09;3.73;;;1.90;;
12120;SDS011;6124;59.460;17.908;2023-04-06T09:20:36;4.33;;;1.60;;
12120;SDS011;6124;59.460;17.908;2023-04-06T09:23:04;3.03;;;2.10;;
12120;SDS011;6124;59.460;17.908;2023-04-06T09:25:33;2.63;;;1.77;;
12120;SDS011;6124;59.460;17.908;2023-04-06T09:28:01;4.90;;;1.70;;
12120;SDS011;6124;59.460;17.908;2023-04-06T09:30:31;2.97;;;1.97;;
12120;SDS011;6124;59.460;17.908;2023-04-06T09:33:00;5.27;;;1.90;;
12120;SDS011;6124;59.460;17.908;2023-04-06T09:35:29;4.23;;;1.97;;
12120;SDS011;6124;59.460;17.908;2023-04-06T09:37:58;3.77;;;1.97;;
12120;SDS011;6124;59.460;17.908;2023-04-06T09:40:25;6.83;;;2.07;;
12120;SDS011;6124;59.460;17.908;2023-04-06T09:42:55;4.20;;;2.00;;
12120;SDS011;6124;59.460;17.908;2023-04-06T09:45:24;4.30;;;2.00;;
12120;SDS011;6124;59.460;17.908;2023-04-06T09:47:52;3.77;;;1.90;;
12120;SDS011;6124;59.460;17.908;2023-04-06T09:50:21;3.50;;;1.90;;
12120;SDS011;6124;59.460;17.908;2023-04-06T09:52:50;4.20;;;1.80;;
12120;SDS011;6124;59.460;17.908;2023-04-06T09:55:21;3.30;;;2.10;;
12120;SDS011;6124;59.460;17.908;2023-04-06T09:57:53;5.67;;;2.10;;
12120;SDS011;6124;59.460;17.908;2023-04-06T10:00:23;2.80;;;1.90;;
12120;SDS011;6124;59.460;17.908;2023-04-06T10:02:56;8.83;;;2.00;;
12120;SDS011;6124;59.460;17.908;2023-04-06T10:05:26;5.57;;;2.10;;
12120;SDS011;6124;59.460;17.908;2023-04-06T10:07:57;5.47;;;2.40;;
12120;SDS011;6124;59.460;17.908;2023-04-06T10:10:25;4.30;;;2.30;;
12120;SDS011;6124;59.460;17.908;2023-04-06T10:12:52;6.03;;;2.20;;
12120;SDS011;6124;59.460;17.908;2023-04-06T10:15:21;6.27;;;1.93;;
12120;SDS011;6124;59.460;17.908;2023-04-06T10:17:50;3.10;;;2.03;;
12120;SDS011;6124;59.460;17.908;2023-04-06T10:20:20;2.90;;;1.70;;
12120;SDS011;6124;59.460;17.908;2023-04-06T10:22:51;4.30;;;2.23;;
12120;SDS011;6124;59.460;17.908;2023-04-06T10:25:26;4.50;;;2.20;;
12120;SDS011;6124;59.460;17.908;2023-04-06T10:27:58;3.90;;;1.90;;
12120;SDS011;6124;59.460;17.908;2023-04-06T10:30:26;2.43;;;1.90;;
12120;SDS011;6124;59.460;17.908;2023-04-06T10:32:55;5.17;;;1.90;;
12120;SDS011;6124;59.460;17.908;2023-04-06T10:35:22;4.50;;;2.23;;
12120;SDS011;6124;59.460;17.908;2023-04-06T10:37:51;6.23;;;2.20;;
12120;SDS011;6124;59.460;17.908;2023-04-06T10:40:22;2.93;;;1.97;;
12120;SDS011;6124;59.460;17.908;2023-04-06T10:42:50;2.83;;;1.80;;
12120;SDS011;6124;59.460;17.908;2023-04-06T10:45:21;2.40;;;2.03;;
12120;SDS011;6124;59.460;17.908;2023-04-06T10:47:49;3.87;;;1.80;;
12120;SDS011;6124;59.460;17.908;2023-04-06T10:50:18;4.53;;;2.30;;
12120;SDS011;6124;59.460;17.908;2023-04-06T10:52:45;5.53;;;1.70;;
12120;SDS011;6124;59.460;17.908;2023-04-06T10:55:13;3.63;;;1.70;;
12120;SDS011;6124;59.460;17.908;2023-04-06T10:57:41;5.60;;;1.90;;
12120;SDS011;6124;59.460;17.908;2023-04-06T11:00:08;3.23;;;1.97;;
12120;SDS011;6124;59.460;17.908;2023-04-06T11:02:36;3.10;;;1.80;;
12120;SDS011;6124;59.460;17.908;2023-04-06T11:05:04;4.07;;;1.80;;
12120;SDS011;6124;59.460;17.908;2023-04-06T11:07:33;2.53;;;1.40;;
12120;SDS011;6124;59.460;17.908;2023-04-06T11:10:00;3.10;;;1.90;;
12120;SDS011;6124;59.460;17.908;2023-04-06T11:12:27;2.03;;;1.50;;
12120;SDS011;6124;59.460;17.908;2023-04-06T11:14:56;2.70;;;1.70;;
12120;SDS011;6124;59.460;17.908;2023-04-06T11:17:29;2.07;;;1.40;;
12120;SDS011;6124;59.460;17.908;2023-04-06T11:19:57;2.63;;;2.00;;
12120;SDS011;6124;59.460;17.908;2023-04-06T11:22:25;2.83;;;1.90;;
12120;SDS011;6124;59.460;17.908;2023-04-06T11:25:03;4.43;;;1.70;;
12120;SDS011;6124;59.460;17.908;2023-04-06T11:27:31;3.03;;;1.77;;
12120;SDS011;6124;59.460;17.908;2023-04-06T11:29:59;2.73;;;1.70;;
12120;SDS011;6124;59.460;17.908;2023-04-06T11:32:27;1.77;;;1.60;;
12120;SDS011;6124;59.460;17.908;2023-04-06T11:34:54;5.23;;;1.93;;
12120;SDS011;6124;59.460;17.908;2023-04-06T11:37:25;2.80;;;1.70;;
12120;SDS011;6124;59.460;17.908;2023-04-06T11:39:55;2.20;;;1.90;;
12120;SDS011;6124;59.460;17.908;2023-04-06T11:42:23;2.57;;;1.80;;
12120;SDS011;6124;59.460;17.908;2023-04-06T11:44:51;3.87;;;1.73;;
12120;SDS011;6124;59.460;17.908;2023-04-06T11:47:19;3.63;;;1.83;;
12120;SDS011;6124;59.460;17.908;2023-04-06T11:49:47;2.10;;;1.80;;
12120;SDS011;6124;59.460;17.908;2023-04-06T11:52:16;2.70;;;1.90;;
12120;SDS011;6124;59.460;17.908;2023-04-06T11:54:44;2.77;;;1.90;;
12120;SDS011;6124;59.460;17.908;2023-04-06T11:57:13;2.47;;;1.70;;
12120;SDS011;6124;59.460;17.908;2023-04-06T11:59:40;3.10;;;1.90;;
12120;SDS011;6124;59.460;17.908;2023-04-06T12:02:07;3.30;;;1.50;;
12120;SDS011;6124;59.460;17.908;2023-04-06T12:04:35;2.60;;;1.67;;
12120;SDS011;6124;59.460;17.908;2023-04-06T12:07:02;3.63;;;1.60;;
12120;SDS011;6124;59.460;17.908;2023-04-06T12:09:29;2.10;;;1.80;;
12120;SDS011;6124;59.460;17.908;2023-04-06T12:11:57;4.70;;;1.93;;
12120;SDS011;6124;59.460;17.908;2023-04-06T12:14:26;4.63;;;1.90;;
12120;SDS011;6124;59.460;17.908;2023-04-06T12:16:53;4.57;;;2.03;;
12120;SDS011;6124;59.460;17.908;2023-04-06T12:19:20;2.10;;;1.80;;
12120;SDS011;6124;59.460;17.908;2023-04-06T12:21:50;4.20;;;1.80;;
12120;SDS011;6124;59.460;17.908;2023-04-06T12:24:18;4.83;;;1.93;;
12120;SDS011;6124;59.460;17.908;2023-04-06T12:26:45;4.27;;;1.97;;
12120;SDS011;6124;59.460;17.908;2023-04-06T12:29:13;2.60;;;1.83;;
12120;SDS011;6124;59.460;17.908;2023-04-06T12:31:42;4.43;;;1.73;;
12120;SDS011;6124;59.460;17.908;2023-04-06T12:34:10;4.43;;;1.80;;
12120;SDS011;6124;59.460;17.908;2023-04-06T12:36:37;3.67;;;1.90;;
12120;SDS011;6124;59.460;17.908;2023-04-06T12:39:05;3.53;;;1.97;;
12120;SDS011;6124;59.460;17.908;2023-04-06T12:41:32;4.40;;;2.00;;
12120;SDS011;6124;59.460;17.908;2023-04-06T12:44:00;3.80;;;2.00;;
12120;SDS011;6124;59.460;17.908;2023-04-06T12:46:27;3.77;;;1.90;;
12120;SDS011;6124;59.460;17.908;2023-04-06T12:48:57;3.03;;;1.33;;
12120;SDS011;6124;59.460;17.908;2023-04-06T12:51:24;2.97;;;1.43;;
12120;SDS011;6124;59.460;17.908;2023-04-06T12:53:52;2.47;;;1.77;;
12120;SDS011;6124;59.460;17.908;2023-04-06T12:56:19;4.47;;;2.00;;
12120;SDS011;6124;59.460;17.908;2023-04-06T12:58:47;6.27;;;1.90;;
12120;SDS011;6124;59.460;17.908;2023-04-06T13:01:14;6.23;;;2.03;;
12120;SDS011;6124;59.460;17.908;2023-04-06T13:03:42;3.67;;;1.87;;
12120;SDS011;6124;59.460;17.908;2023-04-06T13:06:11;2.77;;;1.70;;
12120;SDS011;6124;59.460;17.908;2023-04-06T13:08:40;5.10;;;1.90;;
12120;SDS011;6124;59.460;17.908;2023-04-06T13:11:08;9.50;;;2.10;;
12120;SDS011;6124;59.460;17.908;2023-04-06T13:13:35;3.43;;;2.00;;
12120;SDS011;6124;59.460;17.908;2023-04-06T13:16:03;3.13;;;2.00;;
12120;SDS011;6124;59.460;17.908;2023-04-06T13:18:31;3.90;;;1.90;;
12120;SDS011;6124;59.460;17.908;2023-04-06T13:20:59;4.47;;;2.60;;
12120;SDS011;6124;59.460;17.908;2023-04-06T13:23:28;4.00;;;1.73;;
12120;SDS011;6124;59.460;17.908;2023-04-06T13:25:59;3.43;;;2.13;;
12120;SDS011;6124;59.460;17.908;2023-04-06T13:28:26;4.63;;;2.13;;
12120;SDS011;6124;59.460;17.908;2023-04-06T13:30:54;3.07;;;1.83;;
12120;SDS011;6124;59.460;17.908;2023-04-06T13:33:22;3.33;;;2.17;;
12120;SDS011;6124;59.460;17.908;2023-04-06T13:35:49;4.43;;;2.03;;
12120;SDS011;6124;59.460;17.908;2023-04-06T13:38:17;6.77;;;2.47;;
12120;SDS011;6124;59.460;17.908;2023-04-06T13:40:46;3.30;;;1.97;;
12120;SDS011;6124;59.460;17.908;2023-04-06T13:43:13;3.33;;;1.97;;
12120;SDS011;6124;59.460;17.908;2023-04-06T13:45:40;5.43;;;2.00;;
12120;SDS011;6124;59.460;17.908;2023-04-06T13:48:08;5.33;;;2.33;;
12120;SDS011;6124;59.460;17.908;2023-04-06T13:50:35;3.57;;;2.00;;
12120;SDS011;6124;59.460;17.908;2023-04-06T13:53:02;5.27;;;2.10;;
12120;SDS011;6124;59.460;17.908;2023-04-06T13:55:30;4.70;;;2.10;;
12120;SDS011;6124;59.460;17.908;2023-04-06T13:57:58;3.20;;;1.70;;
12120;SDS011;6124;59.460;17.908;2023-04-06T14:00:26;2.97;;;1.90;;
12120;SDS011;6124;59.460;17.908;2023-04-06T14:02:53;4.97;;;2.37;;
12120;SDS011;6124;59.460;17.908;2023-04-06T14:05:21;4.30;;;2.17;;
12120;SDS011;6124;59.460;17.908;2023-04-06T14:07:49;3.73;;;1.70;;
12120;SDS011;6124;59.460;17.908;2023-04-06T14:10:16;4.27;;;2.03;;
12120;SDS011;6124;59.460;17.908;2023-04-06T14:12:46;3.23;;;1.90;;
12120;SDS011;6124;59.460;17.908;2023-04-06T14:15:15;5.43;;;1.90;;
12120;SDS011;6124;59.460;17.908;2023-04-06T14:17:42;7.43;;;1.97;;
12120;SDS011;6124;59.460;17.908;2023-04-06T14:20:10;3.70;;;1.83;;
12120;SDS011;6124;59.460;17.908;2023-04-06T14:22:39;2.57;;;1.60;;
12120;SDS011;6124;59.460;17.908;2023-04-06T14:25:08;3.10;;;1.90;;
12120;SDS011;6124;59.460;17.908;2023-04-06T14:27:36;4.23;;;2.00;;
12120;SDS011;6124;59.460;17.908;2023-04-06T14:30:03;5.07;;;1.87;;
12120;SDS011;6124;59.460;17.908;2023-04-06T14:32:32;4.40;;;2.00;;
12120;SDS011;6124;59.460;17.908;2023-04-06T14:35:00;5.37;;;2.00;;
12120;SDS011;6124;59.460;17.908;2023-04-06T14:37:28;3.60;;;2.23;;
12120;SDS011;6124;59.460;17.908;2023-04-06T14:39:55;4.07;;;2.20;;
12120;SDS011;6124;59.460;17.908;2023-04-06T14:42:22;4.50;;;2.43;;
12120;SDS011;6124;59.460;17.908;2023-04-06T14:44:50;4.90;;;2.03;;
12120;SDS011;6124;59.460;17.908;2023-04-06T14:47:18;3.43;;;1.83;;
12120;SDS011;6124;59.460;17.908;2023-04-06T14:49:50;3.47;;;1.70;;
12120;SDS011;6124;59.460;17.908;2023-04-06T14:52:18;4.13;;;2.20;;